Oshkosh, WI

9:29 AM CST on January 22, 2017 (GMT -0600)
Ferry Crossing Neighborhood | | Change Station
Active Advisory: Dense Fog Advisory

Elev 781 ft 44.05 °N, 88.56 °W | Updated 27 seconds ago

Fog
Fog
37.4 °F
Feels Like 37 °F
N
2.2
Wind Variable Wind from SW
Gusts 2.2 mph

Today
High -- | Low -- °F
--% Chance of Precip.
Yesterday
High -- | Low -- °F
Precip. -- in
Pressure 29.67 in
Visibility 0.2 miles
Clouds
Windchill 37 °F
Dew Point 37 °F
Humidity 97%
Rainfall 0.00 in
Snow Depth Not available.
7:20 AM 4:51 PM
Waning Crescent, 25% visible
METAR KOSH 221453Z 00000KT M1/4SM R36/0800FT FG VV002 02/02 A2964 RMK AO2 SLP045 T00220022 53021
Pressure 29.67 in
Visibility 0.2 miles
Clouds
Windchill 37 °F
Dew Point 37 °F
Humidity 97%
Rainfall 0.00 in
Snow Depth Not available.
7:20 AM 4:51 PM
Waning Crescent, 25% visible
METAR KOSH 221453Z 00000KT M1/4SM R36/0800FT FG VV002 02/02 A2964 RMK AO2 SLP045 T00220022 53021

Get Your Daily Forecast Email!

Thanks for signing up!

Be on the lookout for a verification email in your inbox.

You'll start receiving the daily forecast at 8 AM.

×

10-Day Weather Forecast

Almanac

Astronomy

Jan. 22, 2017 Rise Set
Actual Time
Civil Twilight
Nautical Twilight
Astronomical Twilight
Moon
Length of Visible Light
Length of Day
Tomorrow will be .
, % of the Moon is Illuminated

Today's Extremes

State Highs State Lows

Community

WunderPhotos

Upload Photos

1,962,540 photos uploaded!

WunderBlog® & News

Nearby

Air Quality

  Air Quality AQ Index Pollutant
Not available.

Snow Depth

Station Depth Elevation

Earthquake Activity

City Distance Mag. Time & Date
Minimum magnitude displayed is 2.5.

Coastal Water Temperatures

Place Temperature

Stations

Nearby Weather Stations

Station Location Temp. Windchill Dew Point Humidity Wind Precip. Elev Updated Type
                   

Watches & Warnings

Dense Fog Advisory
Issued: 4:43 AM CST Jan. 22, 2017 – National Weather Service

... Dense fog advisory remains in effect until noon CST today...

* visibilities will frequently be a quarter mile or less. Some
locations may see visibility drop to only a few hundred feet.

* Poor visibilities will result in hazardous driving conditions.

Precautionary/preparedness actions...

A dense fog advisory means visibilities will frequently be
reduced to less than one quarter mile. If driving... slow down...
use your low beam headlights... and keep a safe distance from
other vehicles.